• Join FlightAware (Why Join?)
  • Login
  • US Flag 
10:24PM EDT


 

Airport Tracker/Info


-or-


 

Live Flight TrackerFlight Track Log ✈ KAL1917 ✈ 23-Jul-2013 ✈ RKJK / KUV - RKPC / CJU

Flight Track Log - Related Links

Times and Time Zones

All times are in EDT time to prevent confusion due to time zone crossing. See the KAL1917 flight status page for this flight to view local times or setup timezone preferences in your user account.

Time Position Orientation Groundspeed Altitude Reporting Facility
EDT Latitude Longitude Course Direction KTS MPH feet Rate Location/Type
01:23AM 35.2498 126.5816 182° South  Level Estimated
01:24AM 35.1408 126.5759 182° South  Level Estimated
01:25AM 35.0318 126.5703 182° South  Level Estimated
01:26AM 34.9228 126.5647 182° South  Level Estimated
01:27AM 34.8139 126.5590 182° South  Level Estimated
01:28AM 34.7049 126.5534 182° South  Level Estimated
01:29AM 34.5959 126.5479 182° South  Level Estimated
01:30AM 34.4869 126.5423 182° South  Level Estimated
01:31AM 34.3779 126.5367 182° South  Level Estimated
01:32AM 34.2689 126.5312 182° South  Level Estimated
01:33AM 34.1599 126.5257 182° South  Level Estimated
01:34AM 34.0509 126.5201 182° South  Level Estimated
01:35AM 33.9760 126.5163 182° South  Level Estimated
01:36AM 33.9011 126.5126 182° South  Level Estimated
01:37AM 33.8261 126.5088 182° South  Level Estimated
01:38AM 33.7512 126.5050 182° South  Level Estimated
01:39AM 33.6763 126.5013 182° South  Level Estimated
01:40AM 33.6013 126.4975 182° South  Level Estimated
01:41AM 33.5264 126.4938 182° South  Level Estimated
01:42AM 33.5113 126.4930 182° South  Level Estimated
01:43AM 33.5113 126.4930 203° Southwest  Level Estimated
01:44AM 33.5113 126.4930 203° Southwest  Level Estimated
01:45AM 33.5113 126.4930 203° Southwest  Level Estimated
01:46AM 33.5113 126.4930 203° Southwest  Level Estimated
01:47AM 33.5113 126.4930 203° Southwest  Level Estimated
01:48AM 33.5113 126.4930 203° Southwest  Level Estimated
01:49AM 33.5113 126.4930 203° Southwest  Level Estimated
01:50AM 33.5113 126.4930 203° Southwest  Level Estimated